sensor_id;sensor_type;location;lat;lon;timestamp;temperature;humidity
5731;DHT22;2890;51.950;7.668;2022-08-01T06:18:16;19.40;99.90
5731;DHT22;2890;51.950;7.668;2022-08-01T06:20:43;19.20;99.90
5731;DHT22;2890;51.950;7.668;2022-08-01T06:23:11;19.00;99.90
5731;DHT22;2890;51.950;7.668;2022-08-01T06:25:39;18.80;99.90
5731;DHT22;2890;51.950;7.668;2022-08-01T06:28:05;18.70;99.90
5731;DHT22;2890;51.950;7.668;2022-08-01T06:30:32;18.80;99.90
5731;DHT22;2890;51.950;7.668;2022-08-01T06:32:59;18.70;99.90
5731;DHT22;2890;51.950;7.668;2022-08-01T06:35:27;18.70;99.90
5731;DHT22;2890;51.950;7.668;2022-08-01T06:37:55;18.80;99.90
5731;DHT22;2890;51.950;7.668;2022-08-01T06:40:23;18.70;99.90
5731;DHT22;2890;51.950;7.668;2022-08-01T06:42:50;18.60;99.90
5731;DHT22;2890;51.950;7.668;2022-08-01T06:45:17;18.50;99.90
5731;DHT22;2890;51.950;7.668;2022-08-01T06:47:44;18.40;99.90
5731;DHT22;2890;51.950;7.668;2022-08-01T06:50:11;18.40;99.90
5731;DHT22;2890;51.950;7.668;2022-08-01T06:52:39;18.40;99.90
5731;DHT22;2890;51.950;7.668;2022-08-01T06:55:06;18.50;99.90
5731;DHT22;2890;51.950;7.668;2022-08-01T06:57:35;18.50;99.90
5731;DHT22;2890;51.950;7.668;2022-08-01T07:00:04;18.60;99.90
5731;DHT22;2890;51.950;7.668;2022-08-01T07:02:34;18.70;99.90
5731;DHT22;2890;51.950;7.668;2022-08-01T07:05:01;18.80;99.90
5731;DHT22;2890;51.950;7.668;2022-08-01T07:07:29;18.90;99.90
5731;DHT22;2890;51.950;7.668;2022-08-01T07:09:56;19.00;99.90
5731;DHT22;2890;51.950;7.668;2022-08-01T07:12:22;19.00;99.90
5731;DHT22;2890;51.950;7.668;2022-08-01T07:14:50;19.00;99.90
5731;DHT22;2890;51.950;7.668;2022-08-01T07:17:17;18.90;99.90
5731;DHT22;2890;51.950;7.668;2022-08-01T07:19:45;19.00;99.90
5731;DHT22;2890;51.950;7.668;2022-08-01T07:22:12;19.00;99.90
5731;DHT22;2890;51.950;7.668;2022-08-01T07:24:39;19.10;99.90
5731;DHT22;2890;51.950;7.668;2022-08-01T07:27:07;19.10;99.90
5731;DHT22;2890;51.950;7.668;2022-08-01T07:29:33;19.10;99.90
5731;DHT22;2890;51.950;7.668;2022-08-01T07:32:01;19.20;99.90
5731;DHT22;2890;51.950;7.668;2022-08-01T07:34:28;19.30;99.90
5731;DHT22;2890;51.950;7.668;2022-08-01T07:36:55;19.30;99.90
5731;DHT22;2890;51.950;7.668;2022-08-01T07:39:22;19.30;99.90
5731;DHT22;2890;51.950;7.668;2022-08-01T07:41:49;19.40;99.90
5731;DHT22;2890;51.950;7.668;2022-08-01T07:44:15;19.40;99.90
5731;DHT22;2890;51.950;7.668;2022-08-01T07:46:42;19.50;99.90
5731;DHT22;2890;51.950;7.668;2022-08-01T07:49:10;19.40;99.90
5731;DHT22;2890;51.950;7.668;2022-08-01T07:51:37;19.40;99.90
5731;DHT22;2890;51.950;7.668;2022-08-01T07:54:03;19.50;99.90
5731;DHT22;2890;51.950;7.668;2022-08-01T07:56:30;19.40;99.90
5731;DHT22;2890;51.950;7.668;2022-08-01T07:58:57;19.50;99.90
5731;DHT22;2890;51.950;7.668;2022-08-01T08:01:23;19.30;99.90
5731;DHT22;2890;51.950;7.668;2022-08-01T08:03:50;19.10;99.90
5731;DHT22;2890;51.950;7.668;2022-08-01T08:06:18;18.90;99.90
5731;DHT22;2890;51.950;7.668;2022-08-01T08:08:45;18.80;99.90
5731;DHT22;2890;51.950;7.668;2022-08-01T08:11:11;18.80;99.90
5731;DHT22;2890;51.950;7.668;2022-08-01T08:13:38;18.80;99.90
5731;DHT22;2890;51.950;7.668;2022-08-01T08:16:05;18.90;99.90
5731;DHT22;2890;51.950;7.668;2022-08-01T08:18:32;19.00;99.90
5731;DHT22;2890;51.950;7.668;2022-08-01T08:20:58;19.10;99.90
5731;DHT22;2890;51.950;7.668;2022-08-01T08:23:26;19.20;99.90
5731;DHT22;2890;51.950;7.668;2022-08-01T08:26:11;19.20;99.90
5731;DHT22;2890;51.950;7.668;2022-08-01T08:28:37;19.20;99.90
5731;DHT22;2890;51.950;7.668;2022-08-01T08:31:04;19.20;99.90
5731;DHT22;2890;51.950;7.668;2022-08-01T08:33:31;19.30;99.90
5731;DHT22;2890;51.950;7.668;2022-08-01T08:35:58;19.50;99.90
5731;DHT22;2890;51.950;7.668;2022-08-01T08:38:24;19.70;99.90
5731;DHT22;2890;51.950;7.668;2022-08-01T08:40:54;19.70;99.90
5731;DHT22;2890;51.950;7.668;2022-08-01T08:43:21;19.60;99.90
5731;DHT22;2890;51.950;7.668;2022-08-01T08:45:48;19.60;99.90
5731;DHT22;2890;51.950;7.668;2022-08-01T08:48:15;19.60;99.90
5731;DHT22;2890;51.950;7.668;2022-08-01T08:50:43;19.60;99.90
5731;DHT22;2890;51.950;7.668;2022-08-01T08:53:13;19.80;99.90
5731;DHT22;2890;51.950;7.668;2022-08-01T08:55:42;19.90;99.90
5731;DHT22;2890;51.950;7.668;2022-08-01T08:58:12;20.00;99.90
5731;DHT22;2890;51.950;7.668;2022-08-01T09:00:40;20.10;99.90
5731;DHT22;2890;51.950;7.668;2022-08-01T09:03:07;20.10;99.90
5731;DHT22;2890;51.950;7.668;2022-08-01T09:05:33;20.10;99.90
5731;DHT22;2890;51.950;7.668;2022-08-01T09:08:00;20.10;99.90
5731;DHT22;2890;51.950;7.668;2022-08-01T09:10:27;20.10;99.90
5731;DHT22;2890;51.950;7.668;2022-08-01T09:13:08;20.00;99.90
5731;DHT22;2890;51.950;7.668;2022-08-01T09:15:45;20.00;99.90
5731;DHT22;2890;51.950;7.668;2022-08-01T09:18:29;19.90;99.90
5731;DHT22;2890;51.950;7.668;2022-08-01T09:21:08;19.80;99.90
5731;DHT22;2890;51.950;7.668;2022-08-01T09:23:36;19.80;99.90
5731;DHT22;2890;51.950;7.668;2022-08-01T09:26:05;19.80;99.90
5731;DHT22;2890;51.950;7.668;2022-08-01T09:28:32;19.60;99.90
5731;DHT22;2890;51.950;7.668;2022-08-01T09:31:06;19.50;99.90
5731;DHT22;2890;51.950;7.668;2022-08-01T09:33:47;19.50;99.90
5731;DHT22;2890;51.950;7.668;2022-08-01T09:36:14;19.60;99.90
5731;DHT22;2890;51.950;7.668;2022-08-01T09:38:41;19.60;99.90
5731;DHT22;2890;51.950;7.668;2022-08-01T09:41:08;19.60;99.90
5731;DHT22;2890;51.950;7.668;2022-08-01T09:43:36;19.70;99.90
5731;DHT22;2890;51.950;7.668;2022-08-01T09:46:09;19.70;99.90
5731;DHT22;2890;51.950;7.668;2022-08-01T09:48:37;19.60;99.90
5731;DHT22;2890;51.950;7.668;2022-08-01T09:51:05;19.60;99.90
5731;DHT22;2890;51.950;7.668;2022-08-01T09:53:43;19.50;99.90
5731;DHT22;2890;51.950;7.668;2022-08-01T09:56:11;19.60;99.90
5731;DHT22;2890;51.950;7.668;2022-08-01T09:58:52;19.60;99.90
5731;DHT22;2890;51.950;7.668;2022-08-01T10:01:21;19.50;99.90
5731;DHT22;2890;51.950;7.668;2022-08-01T10:04:07;19.30;99.90
5731;DHT22;2890;51.950;7.668;2022-08-01T10:06:35;19.20;99.90
5731;DHT22;2890;51.950;7.668;2022-08-01T10:09:02;19.10;99.90
5731;DHT22;2890;51.950;7.668;2022-08-01T10:11:29;19.20;99.90
5731;DHT22;2890;51.950;7.668;2022-08-01T10:13:59;19.20;99.90
5731;DHT22;2890;51.950;7.668;2022-08-01T10:16:28;19.30;99.90
5731;DHT22;2890;51.950;7.668;2022-08-01T10:18:57;19.50;99.90
5731;DHT22;2890;51.950;7.668;2022-08-01T10:21:25;19.60;99.90
5731;DHT22;2890;51.950;7.668;2022-08-01T10:23:53;19.70;99.90
5731;DHT22;2890;51.950;7.668;2022-08-01T10:26:20;19.50;99.90
5731;DHT22;2890;51.950;7.668;2022-08-01T10:28:48;19.40;99.90
5731;DHT22;2890;51.950;7.668;2022-08-01T10:31:16;19.40;99.90
5731;DHT22;2890;51.950;7.668;2022-08-01T10:33:46;19.40;99.90
5731;DHT22;2890;51.950;7.668;2022-08-01T10:36:13;19.50;99.90
5731;DHT22;2890;51.950;7.668;2022-08-01T10:38:40;19.60;99.90
5731;DHT22;2890;51.950;7.668;2022-08-01T10:41:08;19.60;99.90
5731;DHT22;2890;51.950;7.668;2022-08-01T10:43:35;19.60;99.90
5731;DHT22;2890;51.950;7.668;2022-08-01T10:46:03;19.60;99.90
5731;DHT22;2890;51.950;7.668;2022-08-01T10:48:39;19.80;99.90
5731;DHT22;2890;51.950;7.668;2022-08-01T10:51:08;19.90;99.90
5731;DHT22;2890;51.950;7.668;2022-08-01T10:53:35;20.10;99.90
5731;DHT22;2890;51.950;7.668;2022-08-01T10:56:03;20.40;99.90
5731;DHT22;2890;51.950;7.668;2022-08-01T10:58:33;20.50;99.90
5731;DHT22;2890;51.950;7.668;2022-08-01T11:01:22;20.80;99.90
5731;DHT22;2890;51.950;7.668;2022-08-01T11:04:05;21.00;99.90
5731;DHT22;2890;51.950;7.668;2022-08-01T11:09:38;21.00;99.90
5731;DHT22;2890;51.950;7.668;2022-08-01T11:12:08;21.00;99.90
5731;DHT22;2890;51.950;7.668;2022-08-01T11:17:42;20.80;99.90
5731;DHT22;2890;51.950;7.668;2022-08-01T11:20:14;20.60;99.90
5731;DHT22;2890;51.950;7.668;2022-08-01T11:26:09;20.90;99.90
5731;DHT22;2890;51.950;7.668;2022-08-01T11:28:37;21.10;99.90
5731;DHT22;2890;51.950;7.668;2022-08-01T11:31:27;21.20;99.90
5731;DHT22;2890;51.950;7.668;2022-08-01T11:33:54;21.50;99.90
5731;DHT22;2890;51.950;7.668;2022-08-01T11:36:20;21.80;99.90
5731;DHT22;2890;51.950;7.668;2022-08-01T11:38:50;22.10;99.90
5731;DHT22;2890;51.950;7.668;2022-08-01T11:41:38;22.20;99.90
5731;DHT22;2890;51.950;7.668;2022-08-01T11:44:06;22.40;99.90
5731;DHT22;2890;51.950;7.668;2022-08-01T11:46:51;22.40;99.90
5731;DHT22;2890;51.950;7.668;2022-08-01T11:49:27;22.30;99.90
5731;DHT22;2890;51.950;7.668;2022-08-01T11:52:00;22.20;99.90
5731;DHT22;2890;51.950;7.668;2022-08-01T11:54:28;22.10;99.90
5731;DHT22;2890;51.950;7.668;2022-08-01T11:56:57;22.10;99.90
5731;DHT22;2890;51.950;7.668;2022-08-01T11:59:25;21.90;99.90
5731;DHT22;2890;51.950;7.668;2022-08-01T12:01:53;21.90;99.90
5731;DHT22;2890;51.950;7.668;2022-08-01T12:04:20;21.50;99.90
5731;DHT22;2890;51.950;7.668;2022-08-01T12:06:46;21.00;99.90
5731;DHT22;2890;51.950;7.668;2022-08-01T12:09:18;20.40;99.90
5731;DHT22;2890;51.950;7.668;2022-08-01T12:11:45;20.10;99.90
5731;DHT22;2890;51.950;7.668;2022-08-01T12:14:18;19.90;99.90
5731;DHT22;2890;51.950;7.668;2022-08-01T12:16:50;19.70;99.90
5731;DHT22;2890;51.950;7.668;2022-08-01T12:19:20;19.60;99.90
5731;DHT22;2890;51.950;7.668;2022-08-01T12:22:05;19.40;99.90
5731;DHT22;2890;51.950;7.668;2022-08-01T12:24:32;19.50;99.90
5731;DHT22;2890;51.950;7.668;2022-08-01T12:26:59;19.50;99.90
5731;DHT22;2890;51.950;7.668;2022-08-01T12:29:34;19.60;99.90
5731;DHT22;2890;51.950;7.668;2022-08-01T12:32:01;19.60;99.90
5731;DHT22;2890;51.950;7.668;2022-08-01T12:34:29;19.80;99.90
5731;DHT22;2890;51.950;7.668;2022-08-01T12:36:56;19.90;99.90
5731;DHT22;2890;51.950;7.668;2022-08-01T12:39:29;20.20;99.90
5731;DHT22;2890;51.950;7.668;2022-08-01T12:41:56;20.60;99.90
5731;DHT22;2890;51.950;7.668;2022-08-01T12:44:23;20.80;99.90
5731;DHT22;2890;51.950;7.668;2022-08-01T12:46:51;21.00;99.90
5731;DHT22;2890;51.950;7.668;2022-08-01T12:49:19;21.20;99.90
5731;DHT22;2890;51.950;7.668;2022-08-01T12:51:45;21.30;99.90
5731;DHT22;2890;51.950;7.668;2022-08-01T12:54:12;21.30;99.90
5731;DHT22;2890;51.950;7.668;2022-08-01T12:56:39;21.40;99.90
5731;DHT22;2890;51.950;7.668;2022-08-01T12:59:19;21.60;99.90
5731;DHT22;2890;51.950;7.668;2022-08-01T13:01:46;21.70;99.90
5731;DHT22;2890;51.950;7.668;2022-08-01T13:04:14;21.90;99.90
5731;DHT22;2890;51.950;7.668;2022-08-01T13:06:41;22.20;99.90
5731;DHT22;2890;51.950;7.668;2022-08-01T13:09:09;22.50;99.90
5731;DHT22;2890;51.950;7.668;2022-08-01T13:11:37;22.70;99.90
5731;DHT22;2890;51.950;7.668;2022-08-01T13:14:04;22.80;99.90
5731;DHT22;2890;51.950;7.668;2022-08-01T13:16:31;23.00;99.90
5731;DHT22;2890;51.950;7.668;2022-08-01T13:18:58;23.00;99.90
5731;DHT22;2890;51.950;7.668;2022-08-01T13:21:28;23.00;99.90
5731;DHT22;2890;51.950;7.668;2022-08-01T13:24:04;23.10;99.90
5731;DHT22;2890;51.950;7.668;2022-08-01T13:26:40;23.40;99.90
5731;DHT22;2890;51.950;7.668;2022-08-01T13:29:08;23.70;99.90
5731;DHT22;2890;51.950;7.668;2022-08-01T13:31:36;23.90;99.90
5731;DHT22;2890;51.950;7.668;2022-08-01T13:34:03;24.00;99.90
5731;DHT22;2890;51.950;7.668;2022-08-01T13:36:31;24.00;99.90
5731;DHT22;2890;51.950;7.668;2022-08-01T13:38:59;24.20;99.90
5731;DHT22;2890;51.950;7.668;2022-08-01T13:41:45;24.20;99.90
5731;DHT22;2890;51.950;7.668;2022-08-01T13:44:12;24.20;99.90
5731;DHT22;2890;51.950;7.668;2022-08-01T13:46:39;24.20;99.90
5731;DHT22;2890;51.950;7.668;2022-08-01T13:49:08;24.30;99.90
5731;DHT22;2890;51.950;7.668;2022-08-01T13:51:37;24.40;99.90
5731;DHT22;2890;51.950;7.668;2022-08-01T13:54:05;24.60;99.90
5731;DHT22;2890;51.950;7.668;2022-08-01T13:56:32;24.60;99.90
5731;DHT22;2890;51.950;7.668;2022-08-01T13:58:59;24.60;99.90
5731;DHT22;2890;51.950;7.668;2022-08-01T14:01:25;24.60;99.90
5731;DHT22;2890;51.950;7.668;2022-08-01T14:03:52;24.70;99.90
5731;DHT22;2890;51.950;7.668;2022-08-01T14:06:19;25.00;99.90
5731;DHT22;2890;51.950;7.668;2022-08-01T14:08:49;24.90;99.50
5731;DHT22;2890;51.950;7.668;2022-08-01T14:11:16;24.70;96.10
5731;DHT22;2890;51.950;7.668;2022-08-01T14:13:43;24.70;99.00
5731;DHT22;2890;51.950;7.668;2022-08-01T14:16:09;24.90;99.90
5731;DHT22;2890;51.950;7.668;2022-08-01T14:18:37;24.80;99.40
5731;DHT22;2890;51.950;7.668;2022-08-01T14:21:03;24.70;98.50
5731;DHT22;2890;51.950;7.668;2022-08-01T14:23:30;24.70;99.50
5731;DHT22;2890;51.950;7.668;2022-08-01T14:25:58;24.70;98.30
5731;DHT22;2890;51.950;7.668;2022-08-01T14:28:25;24.70;98.70
5731;DHT22;2890;51.950;7.668;2022-08-01T14:30:53;24.60;99.70
5731;DHT22;2890;51.950;7.668;2022-08-01T14:33:21;24.50;98.30
5731;DHT22;2890;51.950;7.668;2022-08-01T14:35:48;24.40;97.10
5731;DHT22;2890;51.950;7.668;2022-08-01T14:38:15;24.20;97.30
5731;DHT22;2890;51.950;7.668;2022-08-01T14:40:42;24.20;99.70
5731;DHT22;2890;51.950;7.668;2022-08-01T14:43:10;24.20;99.90
5731;DHT22;2890;51.950;7.668;2022-08-01T14:45:36;24.20;99.70
5731;DHT22;2890;51.950;7.668;2022-08-01T14:48:04;24.40;99.90
5731;DHT22;2890;51.950;7.668;2022-08-01T14:50:30;24.70;98.20
5731;DHT22;2890;51.950;7.668;2022-08-01T14:52:57;24.90;97.70
5731;DHT22;2890;51.950;7.668;2022-08-01T14:55:24;25.10;96.60
5731;DHT22;2890;51.950;7.668;2022-08-01T14:57:52;25.00;95.70
5731;DHT22;2890;51.950;7.668;2022-08-01T15:00:20;25.20;95.60
5731;DHT22;2890;51.950;7.668;2022-08-01T15:02:48;25.10;94.10
5731;DHT22;2890;51.950;7.668;2022-08-01T15:05:14;25.00;93.40
5731;DHT22;2890;51.950;7.668;2022-08-01T15:07:41;25.00;93.50
5731;DHT22;2890;51.950;7.668;2022-08-01T15:10:08;24.70;94.60
5731;DHT22;2890;51.950;7.668;2022-08-01T15:12:35;24.50;94.70
5731;DHT22;2890;51.950;7.668;2022-08-01T15:15:02;24.30;95.20
5731;DHT22;2890;51.950;7.668;2022-08-01T15:17:32;24.10;94.90
5731;DHT22;2890;51.950;7.668;2022-08-01T15:20:02;23.90;94.20
5731;DHT22;2890;51.950;7.668;2022-08-01T15:22:29;23.90;94.50
5731;DHT22;2890;51.950;7.668;2022-08-01T15:24:58;23.70;94.90
5731;DHT22;2890;51.950;7.668;2022-08-01T15:27:26;23.80;96.80
5731;DHT22;2890;51.950;7.668;2022-08-01T15:29:54;23.70;94.50
5731;DHT22;2890;51.950;7.668;2022-08-01T15:32:22;23.60;95.80
5731;DHT22;2890;51.950;7.668;2022-08-01T15:34:50;23.60;94.40
5731;DHT22;2890;51.950;7.668;2022-08-01T15:37:17;23.70;94.60
5731;DHT22;2890;51.950;7.668;2022-08-01T15:39:44;23.90;94.30
5731;DHT22;2890;51.950;7.668;2022-08-01T15:42:13;24.00;94.60
5731;DHT22;2890;51.950;7.668;2022-08-01T15:44:40;24.00;94.10
5731;DHT22;2890;51.950;7.668;2022-08-01T15:47:07;23.90;93.70
5731;DHT22;2890;51.950;7.668;2022-08-01T15:49:35;23.60;91.80
5731;DHT22;2890;51.950;7.668;2022-08-01T15:52:04;23.40;95.20
5731;DHT22;2890;51.950;7.668;2022-08-01T15:54:31;23.20;93.90
5731;DHT22;2890;51.950;7.668;2022-08-01T15:56:58;23.30;95.60
5731;DHT22;2890;51.950;7.668;2022-08-01T15:59:25;23.60;94.20
5731;DHT22;2890;51.950;7.668;2022-08-01T16:01:52;23.50;94.40
5731;DHT22;2890;51.950;7.668;2022-08-01T16:04:19;23.60;94.00
5731;DHT22;2890;51.950;7.668;2022-08-01T16:06:46;23.50;93.00
5731;DHT22;2890;51.950;7.668;2022-08-01T16:09:15;23.30;93.00
5731;DHT22;2890;51.950;7.668;2022-08-01T16:11:41;23.10;92.70
5731;DHT22;2890;51.950;7.668;2022-08-01T16:14:08;23.10;93.80
5731;DHT22;2890;51.950;7.668;2022-08-01T16:16:35;23.00;95.10
5731;DHT22;2890;51.950;7.668;2022-08-01T16:19:01;23.00;93.80
5731;DHT22;2890;51.950;7.668;2022-08-01T16:21:29;22.90;93.90
5731;DHT22;2890;51.950;7.668;2022-08-01T16:23:56;23.00;93.60
5731;DHT22;2890;51.950;7.668;2022-08-01T16:26:24;22.90;92.80
5731;DHT22;2890;51.950;7.668;2022-08-01T16:28:51;22.80;92.90
5731;DHT22;2890;51.950;7.668;2022-08-01T16:31:18;22.70;94.00
5731;DHT22;2890;51.950;7.668;2022-08-01T16:33:45;22.70;95.10
5731;DHT22;2890;51.950;7.668;2022-08-01T16:36:12;22.60;93.30
5731;DHT22;2890;51.950;7.668;2022-08-01T16:38:39;22.50;93.50
5731;DHT22;2890;51.950;7.668;2022-08-01T16:41:06;22.40;93.10
5731;DHT22;2890;51.950;7.668;2022-08-01T16:43:34;22.40;93.10
5731;DHT22;2890;51.950;7.668;2022-08-01T16:46:01;22.50;93.30
5731;DHT22;2890;51.950;7.668;2022-08-01T16:48:28;22.50;92.80
5731;DHT22;2890;51.950;7.668;2022-08-01T16:50:54;22.50;93.60
5731;DHT22;2890;51.950;7.668;2022-08-01T16:53:22;22.50;94.30
5731;DHT22;2890;51.950;7.668;2022-08-01T16:55:49;22.60;93.70
5731;DHT22;2890;51.950;7.668;2022-08-01T16:58:17;22.60;93.00
5731;DHT22;2890;51.950;7.668;2022-08-01T17:00:46;22.60;92.90
5731;DHT22;2890;51.950;7.668;2022-08-01T17:03:14;22.70;91.90
5731;DHT22;2890;51.950;7.668;2022-08-01T17:05:41;22.70;92.30
5731;DHT22;2890;51.950;7.668;2022-08-01T17:08:08;22.70;93.00
5731;DHT22;2890;51.950;7.668;2022-08-01T17:10:36;22.60;94.50
5731;DHT22;2890;51.950;7.668;2022-08-01T17:13:04;22.60;93.60
5731;DHT22;2890;51.950;7.668;2022-08-01T17:15:31;22.60;93.00
5731;DHT22;2890;51.950;7.668;2022-08-01T17:18:00;22.40;93.70
5731;DHT22;2890;51.950;7.668;2022-08-01T17:20:28;22.40;92.70
5731;DHT22;2890;51.950;7.668;2022-08-01T17:22:55;22.30;93.30
5731;DHT22;2890;51.950;7.668;2022-08-01T17:25:21;22.20;94.10
5731;DHT22;2890;51.950;7.668;2022-08-01T17:27:49;22.20;94.00
5731;DHT22;2890;51.950;7.668;2022-08-01T17:30:18;22.20;94.10
5731;DHT22;2890;51.950;7.668;2022-08-01T17:32:45;22.20;94.00
5731;DHT22;2890;51.950;7.668;2022-08-01T17:35:13;22.20;94.30
5731;DHT22;2890;51.950;7.668;2022-08-01T17:37:40;22.30;92.80
5731;DHT22;2890;51.950;7.668;2022-08-01T17:45:05;22.60;93.50
5731;DHT22;2890;51.950;7.668;2022-08-01T17:47:32;22.40;92.80
5731;DHT22;2890;51.950;7.668;2022-08-01T17:49:59;22.30;92.60
5731;DHT22;2890;51.950;7.668;2022-08-01T17:52:30;22.20;92.70
5731;DHT22;2890;51.950;7.668;2022-08-01T17:54:57;22.20;94.00
5731;DHT22;2890;51.950;7.668;2022-08-01T17:57:24;22.10;93.80
5731;DHT22;2890;51.950;7.668;2022-08-01T17:59:51;22.10;94.10
5731;DHT22;2890;51.950;7.668;2022-08-01T18:02:17;22.00;92.90
5731;DHT22;2890;51.950;7.668;2022-08-01T18:04:44;22.00;93.40
5731;DHT22;2890;51.950;7.668;2022-08-01T18:07:11;21.90;94.20
5731;DHT22;2890;51.950;7.668;2022-08-01T18:09:39;21.80;94.80
5731;DHT22;2890;51.950;7.668;2022-08-01T18:12:06;21.70;94.90
5731;DHT22;2890;51.950;7.668;2022-08-01T18:14:33;21.60;95.00
5731;DHT22;2890;51.950;7.668;2022-08-01T18:17:00;21.40;95.30
5731;DHT22;2890;51.950;7.668;2022-08-01T18:19:26;21.30;96.50
5731;DHT22;2890;51.950;7.668;2022-08-01T18:21:53;21.20;97.00
5731;DHT22;2890;51.950;7.668;2022-08-01T18:24:21;21.10;96.30
5731;DHT22;2890;51.950;7.668;2022-08-01T18:26:51;21.10;96.10
5731;DHT22;2890;51.950;7.668;2022-08-01T18:29:19;21.10;96.50
5731;DHT22;2890;51.950;7.668;2022-08-01T18:31:46;21.10;96.20
5731;DHT22;2890;51.950;7.668;2022-08-01T18:34:13;21.00;96.80
5731;DHT22;2890;51.950;7.668;2022-08-01T18:36:40;21.00;96.40
5731;DHT22;2890;51.950;7.668;2022-08-01T18:39:08;21.00;96.30
5731;DHT22;2890;51.950;7.668;2022-08-01T18:41:35;20.90;97.10
5731;DHT22;2890;51.950;7.668;2022-08-01T18:44:04;20.90;97.20
5731;DHT22;2890;51.950;7.668;2022-08-01T18:46:31;20.80;97.30
5731;DHT22;2890;51.950;7.668;2022-08-01T18:48:58;20.70;97.90
5731;DHT22;2890;51.950;7.668;2022-08-01T18:51:25;20.70;98.30
5731;DHT22;2890;51.950;7.668;2022-08-01T18:53:53;20.60;98.30
5731;DHT22;2890;51.950;7.668;2022-08-01T18:56:22;20.50;99.20
5731;DHT22;2890;51.950;7.668;2022-08-01T18:58:49;20.40;99.50
5731;DHT22;2890;51.950;7.668;2022-08-01T19:01:17;20.40;99.90
5731;DHT22;2890;51.950;7.668;2022-08-01T19:03:43;20.30;99.90
5731;DHT22;2890;51.950;7.668;2022-08-01T19:06:11;20.20;99.90
5731;DHT22;2890;51.950;7.668;2022-08-01T19:08:38;20.10;99.90
5731;DHT22;2890;51.950;7.668;2022-08-01T19:11:05;20.10;99.90
5731;DHT22;2890;51.950;7.668;2022-08-01T19:13:33;20.00;99.90
5731;DHT22;2890;51.950;7.668;2022-08-01T19:15:59;19.90;99.90
5731;DHT22;2890;51.950;7.668;2022-08-01T19:18:28;19.80;99.90
5731;DHT22;2890;51.950;7.668;2022-08-01T19:20:54;19.80;99.90
5731;DHT22;2890;51.950;7.668;2022-08-01T19:23:21;19.70;99.90
5731;DHT22;2890;51.950;7.668;2022-08-01T19:26:06;19.60;99.90
5731;DHT22;2890;51.950;7.668;2022-08-01T19:28:43;19.60;99.90
5731;DHT22;2890;51.950;7.668;2022-08-01T19:31:12;19.50;99.90
5731;DHT22;2890;51.950;7.668;2022-08-01T19:33:41;19.40;99.90
5731;DHT22;2890;51.950;7.668;2022-08-01T19:36:13;19.40;99.90
5731;DHT22;2890;51.950;7.668;2022-08-01T19:38:40;19.30;99.90
5731;DHT22;2890;51.950;7.668;2022-08-01T19:41:08;19.30;99.90
5731;DHT22;2890;51.950;7.668;2022-08-01T19:43:36;19.20;99.90
5731;DHT22;2890;51.950;7.668;2022-08-01T19:46:03;19.10;99.90
5731;DHT22;2890;51.950;7.668;2022-08-01T19:50:59;19.10;99.90
5731;DHT22;2890;51.950;7.668;2022-08-01T19:53:28;19.00;99.90
5731;DHT22;2890;51.950;7.668;2022-08-01T19:55:57;18.90;99.90
5731;DHT22;2890;51.950;7.668;2022-08-01T19:58:26;18.90;99.90
5731;DHT22;2890;51.950;7.668;2022-08-01T20:00:53;18.80;99.90
5731;DHT22;2890;51.950;7.668;2022-08-01T20:03:21;18.80;99.90
5731;DHT22;2890;51.950;7.668;2022-08-01T20:05:49;18.80;99.90
5731;DHT22;2890;51.950;7.668;2022-08-01T20:08:18;18.70;99.90
5731;DHT22;2890;51.950;7.668;2022-08-01T20:10:46;18.70;99.90
5731;DHT22;2890;51.950;7.668;2022-08-01T20:13:13;18.70;99.90
5731;DHT22;2890;51.950;7.668;2022-08-01T20:15:42;18.60;99.90
5731;DHT22;2890;51.950;7.668;2022-08-01T20:18:09;18.50;99.90
5731;DHT22;2890;51.950;7.668;2022-08-01T20:20:36;18.50;99.90
5731;DHT22;2890;51.950;7.668;2022-08-01T20:23:08;18.40;99.90
5731;DHT22;2890;51.950;7.668;2022-08-01T20:35:31;18.40;99.90
5731;DHT22;2890;51.950;7.668;2022-08-01T20:37:58;18.20;99.90
5731;DHT22;2890;51.950;7.668;2022-08-01T20:40:27;18.10;99.90
5731;DHT22;2890;51.950;7.668;2022-08-01T20:42:56;18.10;99.90
5731;DHT22;2890;51.950;7.668;2022-08-01T20:45:25;18.00;99.90
5731;DHT22;2890;51.950;7.668;2022-08-01T20:47:52;18.00;99.90
5731;DHT22;2890;51.950;7.668;2022-08-01T20:50:20;18.00;99.90
5731;DHT22;2890;51.950;7.668;2022-08-01T20:53:07;17.90;99.90
5731;DHT22;2890;51.950;7.668;2022-08-01T20:55:45;17.80;99.90
5731;DHT22;2890;51.950;7.668;2022-08-01T21:30:34;17.40;99.90
5731;DHT22;2890;51.950;7.668;2022-08-01T21:50:18;17.40;99.90
5731;DHT22;2890;51.950;7.668;2022-08-01T21:52:46;17.40;99.90
5731;DHT22;2890;51.950;7.668;2022-08-01T21:55:20;17.20;99.90
5731;DHT22;2890;51.950;7.668;2022-08-01T21:57:58;17.10;99.90
5731;DHT22;2890;51.950;7.668;2022-08-01T22:00:28;17.10;99.90
5731;DHT22;2890;51.950;7.668;2022-08-01T22:03:03;17.10;99.90
5731;DHT22;2890;51.950;7.668;2022-08-01T22:05:37;17.00;99.90
5731;DHT22;2890;51.950;7.668;2022-08-01T22:08:06;17.00;99.90
5731;DHT22;2890;51.950;7.668;2022-08-01T22:10:36;16.90;99.90
5731;DHT22;2890;51.950;7.668;2022-08-01T22:13:04;16.90;99.90
5731;DHT22;2890;51.950;7.668;2022-08-01T22:15:31;16.90;99.90
5731;DHT22;2890;51.950;7.668;2022-08-01T22:27:49;16.70;99.90
5731;DHT22;2890;51.950;7.668;2022-08-01T22:30:17;16.70;99.90
5731;DHT22;2890;51.950;7.668;2022-08-01T22:32:45;16.70;99.90
5731;DHT22;2890;51.950;7.668;2022-08-01T22:35:13;16.60;99.90
5731;DHT22;2890;51.950;7.668;2022-08-01T22:37:40;16.60;99.90
5731;DHT22;2890;51.950;7.668;2022-08-01T22:40:10;16.60;99.90
5731;DHT22;2890;51.950;7.668;2022-08-01T22:42:41;16.50;99.90
5731;DHT22;2890;51.950;7.668;2022-08-01T22:45:14;16.50;99.90
5731;DHT22;2890;51.950;7.668;2022-08-01T22:47:52;16.40;99.90
5731;DHT22;2890;51.950;7.668;2022-08-01T22:50:23;16.40;99.90
5731;DHT22;2890;51.950;7.668;2022-08-01T22:53:04;16.40;99.90
5731;DHT22;2890;51.950;7.668;2022-08-01T22:55:36;16.30;99.90
5731;DHT22;2890;51.950;7.668;2022-08-01T22:58:03;16.30;99.90
5731;DHT22;2890;51.950;7.668;2022-08-01T23:00:34;16.20;99.90
5731;DHT22;2890;51.950;7.668;2022-08-01T23:03:05;16.20;99.90
5731;DHT22;2890;51.950;7.668;2022-08-01T23:05:39;16.10;99.90
5731;DHT22;2890;51.950;7.668;2022-08-01T23:08:07;16.10;99.90
5731;DHT22;2890;51.950;7.668;2022-08-01T23:10:36;16.10;99.90
5731;DHT22;2890;51.950;7.668;2022-08-01T23:13:03;16.00;99.90
5731;DHT22;2890;51.950;7.668;2022-08-01T23:15:30;16.00;99.90
5731;DHT22;2890;51.950;7.668;2022-08-01T23:18:01;16.00;99.90
5731;DHT22;2890;51.950;7.668;2022-08-01T23:20:29;16.00;99.90
5731;DHT22;2890;51.950;7.668;2022-08-01T23:22:58;15.90;99.90
5731;DHT22;2890;51.950;7.668;2022-08-01T23:25:26;15.90;99.90
5731;DHT22;2890;51.950;7.668;2022-08-01T23:27:54;15.90;99.90
5731;DHT22;2890;51.950;7.668;2022-08-01T23:30:24;15.90;99.90
5731;DHT22;2890;51.950;7.668;2022-08-01T23:32:51;15.80;99.90
5731;DHT22;2890;51.950;7.668;2022-08-01T23:35:18;15.80;99.90
5731;DHT22;2890;51.950;7.668;2022-08-01T23:37:45;15.80;99.90
5731;DHT22;2890;51.950;7.668;2022-08-01T23:40:12;15.70;99.90
5731;DHT22;2890;51.950;7.668;2022-08-01T23:42:38;15.70;99.90
5731;DHT22;2890;51.950;7.668;2022-08-01T23:45:07;15.70;99.90
5731;DHT22;2890;51.950;7.668;2022-08-01T23:47:34;15.70;99.90
5731;DHT22;2890;51.950;7.668;2022-08-01T23:50:01;15.70;99.90
5731;DHT22;2890;51.950;7.668;2022-08-01T23:52:27;15.60;99.90
5731;DHT22;2890;51.950;7.668;2022-08-01T23:54:54;15.60;99.90